createdAt,value
2019-02-27T00:00:30.127Z,1027.41
2019-02-27T00:01:30.101Z,1027.39
2019-02-27T00:02:30.110Z,1027.39
2019-02-27T00:03:30.086Z,1027.40
2019-02-27T00:04:30.077Z,1027.35
2019-02-27T00:05:30.112Z,1027.35
2019-02-27T00:06:30.049Z,1027.43
2019-02-27T00:07:30.057Z,1027.42
2019-02-27T00:08:30.032Z,1027.40
2019-02-27T00:09:32.670Z,1027.42
2019-02-27T00:10:30.012Z,1027.42
2019-02-27T00:11:29.993Z,1027.47
2019-02-27T00:12:30.003Z,1027.47
2019-02-27T00:13:29.969Z,1027.44
2019-02-27T00:14:31.292Z,1027.43
2019-02-27T00:15:29.949Z,1027.41
2019-02-27T00:16:29.937Z,1027.38
2019-02-27T00:17:29.947Z,1027.39
2019-02-27T00:18:29.927Z,1027.37
2019-02-27T00:19:31.491Z,1027.37
2019-02-27T00:20:29.890Z,1027.38
2019-02-27T00:21:29.878Z,1027.42
2019-02-27T00:22:29.895Z,1027.40
2019-02-27T00:23:29.861Z,1027.42
2019-02-27T00:24:30.527Z,1027.42
2019-02-27T00:25:29.837Z,1027.41
2019-02-27T00:26:29.821Z,1027.40
2019-02-27T00:27:29.858Z,1027.40
2019-02-27T00:28:29.801Z,1027.37
2019-02-27T00:29:29.799Z,1027.40
2019-02-27T00:30:29.781Z,1027.35
2019-02-27T00:31:29.770Z,1027.37
2019-02-27T00:32:29.759Z,1027.33
2019-02-27T00:33:29.768Z,1027.26
2019-02-27T00:34:32.826Z,1027.26
2019-02-27T00:35:29.725Z,1027.25
2019-02-27T00:36:29.708Z,1027.26
2019-02-27T00:37:29.704Z,1027.21
2019-02-27T00:38:29.833Z,1027.26
2019-02-27T00:39:31.309Z,1027.25
2019-02-27T00:40:29.669Z,1027.25
2019-02-27T00:41:29.649Z,1027.24
2019-02-27T00:42:33.553Z,1027.23
2019-02-27T00:43:29.659Z,1027.22
2019-02-27T00:44:33.974Z,1027.21
2019-02-27T00:45:30.612Z,1027.25
2019-02-27T00:46:29.596Z,1027.22
2019-02-27T00:47:29.583Z,1027.22
2019-02-27T00:48:29.598Z,1027.16
2019-02-27T00:49:29.852Z,1027.17
2019-02-27T00:50:29.550Z,1027.18
2019-02-27T00:51:29.539Z,1027.20
2019-02-27T00:52:29.535Z,1027.21
2019-02-27T00:53:29.536Z,1027.20
2019-02-27T00:54:31.456Z,1027.19
2019-02-27T00:55:29.498Z,1027.22
2019-02-27T00:56:29.488Z,1027.20
2019-02-27T00:57:29.474Z,1027.17
2019-02-27T00:58:29.482Z,1027.18
2019-02-27T00:59:32.943Z,1027.21
2019-02-27T01:00:29.441Z,1027.16
2019-02-27T01:01:29.435Z,1027.16
2019-02-27T01:02:29.426Z,1027.19
2019-02-27T01:03:29.445Z,1027.19
2019-02-27T01:04:29.394Z,1027.21
2019-02-27T01:05:29.386Z,1027.19
2019-02-27T01:06:29.377Z,1027.11
2019-02-27T01:07:29.367Z,1027.14
2019-02-27T01:08:29.362Z,1027.10
2019-02-27T01:09:29.374Z,1027.08
2019-02-27T01:10:29.327Z,1027.07
2019-02-27T01:11:29.321Z,1027.10
2019-02-27T01:12:29.307Z,1027.06
2019-02-27T01:13:31.266Z,1027.04
2019-02-27T01:14:29.304Z,1027.08
2019-02-27T01:15:29.277Z,1027.10
2019-02-27T01:16:29.262Z,1027.12
2019-02-27T01:17:29.250Z,1027.06
2019-02-27T01:18:30.761Z,1027.04
2019-02-27T01:19:29.245Z,1027.03
2019-02-27T01:20:29.221Z,1026.98
2019-02-27T01:21:29.206Z,1026.96
2019-02-27T01:22:29.194Z,1026.97
2019-02-27T01:23:29.193Z,1026.96
2019-02-27T01:24:29.191Z,1026.94
2019-02-27T01:25:29.237Z,1026.96
2019-02-27T01:26:30.831Z,1026.97
2019-02-27T01:27:29.140Z,1027.02
2019-02-27T01:28:29.129Z,1026.99
2019-02-27T01:29:29.171Z,1026.99
2019-02-27T01:30:29.112Z,1026.97
2019-02-27T01:31:29.094Z,1026.97
2019-02-27T01:32:31.149Z,1026.97
2019-02-27T01:33:29.090Z,1026.93
2019-02-27T01:34:29.084Z,1026.92
2019-02-27T01:35:29.050Z,1026.91
2019-02-27T01:36:29.037Z,1026.87
2019-02-27T01:37:31.659Z,1026.86
2019-02-27T01:38:29.021Z,1026.87
2019-02-27T01:39:29.076Z,1026.88
2019-02-27T01:40:28.996Z,1026.83
2019-02-27T01:41:29.023Z,1026.85
2019-02-27T01:42:32.044Z,1026.91
2019-02-27T01:43:28.958Z,1026.87
2019-02-27T01:44:28.995Z,1026.87
2019-02-27T01:45:28.960Z,1026.88
2019-02-27T01:46:28.924Z,1026.88
2019-02-27T01:47:28.919Z,1026.88
2019-02-27T01:48:29.644Z,1026.84
2019-02-27T01:49:28.902Z,1026.83
2019-02-27T01:50:28.904Z,1026.80
2019-02-27T01:51:28.953Z,1026.76
2019-02-27T01:52:28.858Z,1026.70
2019-02-27T01:53:28.852Z,1026.68
2019-02-27T01:54:28.833Z,1026.70
2019-02-27T01:55:28.857Z,1026.66
2019-02-27T01:56:29.623Z,1026.60
2019-02-27T01:57:28.805Z,1026.63
2019-02-27T01:58:28.793Z,1026.57
2019-02-27T01:59:28.789Z,1026.52
2019-02-27T02:00:28.797Z,1026.53
2019-02-27T02:01:30.231Z,1026.54
2019-02-27T02:02:28.743Z,1026.54
2019-02-27T02:03:28.742Z,1026.50
2019-02-27T02:04:28.721Z,1026.52
2019-02-27T02:05:28.737Z,1026.46
2019-02-27T02:06:31.958Z,1026.43
2019-02-27T02:07:28.778Z,1026.45
2019-02-27T02:08:28.681Z,1026.46
2019-02-27T02:09:28.666Z,1026.44
2019-02-27T02:10:28.887Z,1026.40
2019-02-27T02:11:28.651Z,1026.42
2019-02-27T02:12:28.631Z,1026.39
2019-02-27T02:13:28.701Z,1026.37
2019-02-27T02:14:28.610Z,1026.39
2019-02-27T02:15:28.621Z,1026.31
2019-02-27T02:16:28.596Z,1026.34
2019-02-27T02:17:28.581Z,1026.32
2019-02-27T02:18:28.565Z,1026.29
2019-02-27T02:19:28.557Z,1026.31
2019-02-27T02:20:28.565Z,1026.26
2019-02-27T02:21:28.532Z,1026.25
2019-02-27T02:22:28.538Z,1026.30
2019-02-27T02:23:28.509Z,1026.29
2019-02-27T02:24:28.500Z,1026.27
2019-02-27T02:25:28.669Z,1026.26
2019-02-27T02:26:28.480Z,1026.28
2019-02-27T02:27:28.470Z,1026.25
2019-02-27T02:28:28.457Z,1026.19
2019-02-27T02:29:28.455Z,1026.22
2019-02-27T02:30:29.753Z,1026.16
2019-02-27T02:31:28.419Z,1026.16
2019-02-27T02:32:28.414Z,1026.16
2019-02-27T02:33:30.320Z,1026.14
2019-02-27T02:34:28.398Z,1026.21
2019-02-27T02:35:28.377Z,1026.16
2019-02-27T02:36:28.394Z,1026.12
2019-02-27T02:37:28.363Z,1026.11
2019-02-27T02:38:28.341Z,1026.10
2019-02-27T02:39:28.393Z,1026.09
2019-02-27T02:40:31.111Z,1026.08
2019-02-27T02:41:28.332Z,1026.06
2019-02-27T02:42:28.300Z,1026.03
2019-02-27T02:43:28.289Z,1026.01
2019-02-27T02:44:28.275Z,1026.06
2019-02-27T02:45:32.817Z,1026.00
2019-02-27T02:46:29.271Z,1025.97
2019-02-27T02:47:28.246Z,1026.01
2019-02-27T02:48:31.090Z,1026.00
2019-02-27T02:49:28.225Z,1025.98
2019-02-27T02:50:28.209Z,1026.02
2019-02-27T02:51:29.892Z,1025.99
2019-02-27T02:52:28.185Z,1025.99
2019-02-27T02:53:28.175Z,1026.01
2019-02-27T02:54:28.165Z,1025.99
2019-02-27T02:55:28.155Z,1025.98
2019-02-27T02:56:28.187Z,1025.95
2019-02-27T02:57:28.141Z,1025.96
2019-02-27T02:58:28.120Z,1025.99
2019-02-27T02:59:28.106Z,1026.02
2019-02-27T03:00:28.092Z,1025.95
2019-02-27T03:01:28.103Z,1025.94
2019-02-27T03:02:29.830Z,1025.96
2019-02-27T03:03:28.064Z,1025.98
2019-02-27T03:04:28.052Z,1025.98
2019-02-27T03:05:28.039Z,1025.97
2019-02-27T03:06:34.642Z,1026.00
2019-02-27T03:07:29.026Z,1025.93
2019-02-27T03:08:28.015Z,1026.03
2019-02-27T03:09:30.615Z,1026.01
2019-02-27T03:10:27.985Z,1026.01
2019-02-27T03:11:28.018Z,1026.02
2019-02-27T03:12:30.974Z,1026.07
2019-02-27T03:13:27.952Z,1026.01
2019-02-27T03:14:27.949Z,1026.05
2019-02-27T03:15:28.972Z,1026.02
2019-02-27T03:16:27.914Z,1026.04
2019-02-27T03:17:27.941Z,1026.04
2019-02-27T03:18:29.674Z,1026.05
2019-02-27T03:19:27.948Z,1026.06
2019-02-27T03:20:27.885Z,1026.03
2019-02-27T03:21:28.922Z,1026.08
2019-02-27T03:22:27.867Z,1026.05
2019-02-27T03:23:27.840Z,1026.08
2019-02-27T03:24:28.945Z,1026.05
2019-02-27T03:25:27.822Z,1026.01
2019-02-27T03:26:27.811Z,1026.05
2019-02-27T03:27:30.636Z,1026.00
2019-02-27T03:28:27.785Z,1026.05
2019-02-27T03:29:27.773Z,1026.02
2019-02-27T03:30:34.160Z,1026.00
2019-02-27T03:31:28.748Z,1025.96
2019-02-27T03:32:27.779Z,1026.00
2019-02-27T03:33:27.783Z,1025.97
2019-02-27T03:34:27.720Z,1025.97
2019-02-27T03:35:29.300Z,1025.93
2019-02-27T03:36:27.695Z,1025.91
2019-02-27T03:37:27.707Z,1025.92
2019-02-27T03:38:27.670Z,1025.93
2019-02-27T03:39:27.665Z,1025.90
2019-02-27T03:40:27.647Z,1025.82
2019-02-27T03:41:27.635Z,1025.88
2019-02-27T03:42:30.827Z,1025.88
2019-02-27T03:43:28.619Z,1025.89
2019-02-27T03:44:27.606Z,1025.88
2019-02-27T03:45:30.914Z,1025.87
2019-02-27T03:46:27.583Z,1025.89
2019-02-27T03:47:27.604Z,1025.87
2019-02-27T03:48:28.411Z,1025.89
2019-02-27T03:49:27.548Z,1025.89
2019-02-27T03:50:27.542Z,1025.87
2019-02-27T03:51:27.524Z,1025.88
2019-02-27T03:52:27.531Z,1025.85
2019-02-27T03:53:27.518Z,1025.87
2019-02-27T03:54:27.496Z,1025.88
2019-02-27T03:55:31.849Z,1025.87
2019-02-27T03:56:28.464Z,1025.91
2019-02-27T03:57:27.475Z,1025.89
2019-02-27T03:58:30.691Z,1025.86
2019-02-27T03:59:27.448Z,1025.88
2019-02-27T04:00:27.439Z,1025.91
2019-02-27T04:01:30.469Z,1025.85
2019-02-27T04:02:27.421Z,1025.85
2019-02-27T04:03:27.413Z,1025.88
2019-02-27T04:04:30.603Z,1025.81
2019-02-27T04:05:27.372Z,1025.85
2019-02-27T04:06:27.359Z,1025.82
2019-02-27T04:07:31.550Z,1025.83
2019-02-27T04:08:28.352Z,1025.81
2019-02-27T04:09:27.345Z,1025.79
2019-02-27T04:10:31.020Z,1025.79
2019-02-27T04:11:27.313Z,1025.78
2019-02-27T04:12:27.314Z,1025.78
2019-02-27T04:13:27.916Z,1025.74
2019-02-27T04:14:27.267Z,1025.76
2019-02-27T04:15:27.264Z,1025.83
2019-02-27T04:16:29.422Z,1025.80
2019-02-27T04:17:27.259Z,1025.75
2019-02-27T04:18:28.393Z,1025.73
2019-02-27T04:19:27.216Z,1025.73
2019-02-27T04:20:27.201Z,1025.73
2019-02-27T04:21:27.192Z,1025.75
2019-02-27T04:22:27.207Z,1025.75
2019-02-27T04:23:27.226Z,1025.70
2019-02-27T04:24:27.161Z,1025.77
2019-02-27T04:25:31.074Z,1025.76
2019-02-27T04:26:27.137Z,1025.71
2019-02-27T04:27:27.145Z,1025.72
2019-02-27T04:28:29.540Z,1025.63
2019-02-27T04:29:27.107Z,1025.67
2019-02-27T04:30:27.089Z,1025.74
2019-02-27T04:31:30.521Z,1025.69
2019-02-27T04:32:27.196Z,1025.66
2019-02-27T04:33:27.073Z,1025.69
2019-02-27T04:34:27.051Z,1025.67
2019-02-27T04:35:27.038Z,1025.60
2019-02-27T04:36:27.034Z,1025.64
2019-02-27T04:37:27.027Z,1025.63
2019-02-27T04:38:27.529Z,1025.58
2019-02-27T04:39:27.163Z,1025.59
2019-02-27T04:40:26.986Z,1025.61
2019-02-27T04:41:26.964Z,1025.60
2019-02-27T04:42:26.967Z,1025.57
2019-02-27T04:43:26.959Z,1025.61
2019-02-27T04:44:26.942Z,1025.53
2019-02-27T04:45:26.921Z,1025.57
2019-02-27T04:46:26.919Z,1025.58
2019-02-27T04:47:29.231Z,1025.55
2019-02-27T04:48:29.792Z,1025.57
2019-02-27T04:49:26.875Z,1025.56
2019-02-27T04:50:26.870Z,1025.55
2019-02-27T04:51:26.857Z,1025.57
2019-02-27T04:52:26.839Z,1025.57
2019-02-27T04:53:31.614Z,1025.58
2019-02-27T04:54:26.819Z,1025.57
2019-02-27T04:55:26.809Z,1025.57
2019-02-27T04:56:26.800Z,1025.54
2019-02-27T04:57:26.795Z,1025.57
2019-02-27T04:58:26.804Z,1025.57
2019-02-27T04:59:26.762Z,1025.53
2019-02-27T05:00:26.902Z,1025.51
2019-02-27T05:01:26.746Z,1025.46
2019-02-27T05:02:26.738Z,1025.46
2019-02-27T05:03:28.506Z,1025.43
2019-02-27T05:04:26.714Z,1025.41
2019-02-27T05:05:26.694Z,1025.43
2019-02-27T05:06:26.685Z,1025.39
2019-02-27T05:07:26.679Z,1025.39
2019-02-27T05:08:27.718Z,1025.34
2019-02-27T05:09:26.659Z,1025.34
2019-02-27T05:10:26.642Z,1025.36
2019-02-27T05:11:27.068Z,1025.33
2019-02-27T05:12:26.633Z,1025.32
2019-02-27T05:13:26.630Z,1025.29
2019-02-27T05:14:27.346Z,1025.28
2019-02-27T05:15:26.599Z,1025.26
2019-02-27T05:16:26.571Z,1025.27
2019-02-27T05:17:26.566Z,1025.27
2019-02-27T05:18:29.292Z,1025.23
2019-02-27T05:19:26.543Z,1025.21
2019-02-27T05:20:26.535Z,1025.26
2019-02-27T05:21:26.521Z,1025.21
2019-02-27T05:22:26.784Z,1025.18
2019-02-27T05:23:26.528Z,1025.16
2019-02-27T05:24:26.485Z,1025.20
2019-02-27T05:25:26.476Z,1025.18
2019-02-27T05:26:27.260Z,1025.19
2019-02-27T05:27:27.420Z,1025.15
2019-02-27T05:28:27.166Z,1025.20
2019-02-27T05:29:26.490Z,1025.21
2019-02-27T05:30:26.426Z,1025.20
2019-02-27T05:31:26.411Z,1025.20
2019-02-27T05:32:28.330Z,1025.18
2019-02-27T05:33:26.384Z,1025.22
2019-02-27T05:34:26.390Z,1025.22
2019-02-27T05:35:26.363Z,1025.21
2019-02-27T05:36:29.042Z,1025.22
2019-02-27T05:37:27.346Z,1025.23
2019-02-27T05:38:26.344Z,1025.22
2019-02-27T05:39:26.347Z,1025.29
2019-02-27T05:40:26.666Z,1025.27
2019-02-27T05:41:26.292Z,1025.33
2019-02-27T05:42:26.285Z,1025.28
2019-02-27T05:43:26.273Z,1025.24
2019-02-27T05:44:26.285Z,1025.26
2019-02-27T05:45:30.348Z,1025.27
2019-02-27T05:46:26.241Z,1025.23
2019-02-27T05:47:26.231Z,1025.25
2019-02-27T05:48:26.221Z,1025.21
2019-02-27T05:49:27.396Z,1025.22
2019-02-27T05:50:26.198Z,1025.23
2019-02-27T05:51:26.187Z,1025.27
2019-02-27T05:52:26.179Z,1025.28
2019-02-27T05:53:26.176Z,1025.21
2019-02-27T05:54:26.191Z,1025.21
2019-02-27T05:55:26.147Z,1025.26
2019-02-27T05:56:26.143Z,1025.27
2019-02-27T05:57:26.115Z,1025.27
2019-02-27T05:58:26.107Z,1025.22
2019-02-27T05:59:29.157Z,1025.18
2019-02-27T06:00:26.108Z,1025.20
2019-02-27T06:01:26.079Z,1025.22
2019-02-27T06:02:26.067Z,1025.15
2019-02-27T06:03:26.051Z,1025.17
2019-02-27T06:04:26.082Z,1025.13
2019-02-27T06:05:26.030Z,1025.15
2019-02-27T06:06:26.024Z,1025.16
2019-02-27T06:07:26.023Z,1025.17
2019-02-27T06:08:25.998Z,1025.10
2019-02-27T06:09:26.035Z,1025.12
2019-02-27T06:10:26.000Z,1025.11
2019-02-27T06:11:27.096Z,1025.11
2019-02-27T06:12:25.955Z,1025.08
2019-02-27T06:13:26.005Z,1025.10
2019-02-27T06:14:25.927Z,1025.10
2019-02-27T06:15:28.408Z,1025.13
2019-02-27T06:16:25.914Z,1025.07
2019-02-27T06:17:25.967Z,1025.07
2019-02-27T06:18:25.883Z,1025.02
2019-02-27T06:19:25.871Z,1025.06
2019-02-27T06:20:25.877Z,1025.06
2019-02-27T06:21:25.849Z,1025.09
2019-02-27T06:22:27.271Z,1025.08
2019-02-27T06:23:25.834Z,1025.04
2019-02-27T06:24:25.829Z,1025.03
2019-02-27T06:25:25.834Z,1025.04
2019-02-27T06:26:25.795Z,1024.98
2019-02-27T06:27:25.777Z,1024.97
2019-02-27T06:28:25.903Z,1024.99
2019-02-27T06:29:25.771Z,1024.98
2019-02-27T06:30:27.898Z,1024.98
2019-02-27T06:31:25.741Z,1025.02
2019-02-27T06:32:25.726Z,1025.03
2019-02-27T06:33:25.715Z,1025.03
2019-02-27T06:34:25.698Z,1025.04
2019-02-27T06:35:25.704Z,1025.06
2019-02-27T06:36:25.682Z,1025.03
2019-02-27T06:37:25.668Z,1025.07
2019-02-27T06:38:25.963Z,1025.02
2019-02-27T06:39:25.660Z,1025.03
2019-02-27T06:40:25.662Z,1025.01
2019-02-27T06:41:25.642Z,1024.98
2019-02-27T06:42:25.765Z,1024.94
2019-02-27T06:43:27.385Z,1025.03
2019-02-27T06:44:25.589Z,1024.91
2019-02-27T06:45:25.621Z,1024.93
2019-02-27T06:46:25.603Z,1024.93
2019-02-27T06:47:25.559Z,1024.86
2019-02-27T06:48:25.553Z,1024.90
2019-02-27T06:49:25.536Z,1024.97
2019-02-27T06:50:26.120Z,1024.92
2019-02-27T06:51:25.539Z,1024.88
2019-02-27T06:52:25.509Z,1024.92
2019-02-27T06:53:25.495Z,1024.88
2019-02-27T06:54:25.490Z,1024.90
2019-02-27T06:55:27.983Z,1024.86
2019-02-27T06:56:25.477Z,1024.88
2019-02-27T06:57:26.833Z,1024.87
2019-02-27T06:58:25.443Z,1024.86
2019-02-27T06:59:25.744Z,1024.81
2019-02-27T07:00:25.419Z,1024.83
2019-02-27T07:01:25.417Z,1024.82
2019-02-27T07:02:25.407Z,1024.83
2019-02-27T07:03:29.227Z,1024.83
2019-02-27T07:04:26.871Z,1024.83
2019-02-27T07:05:25.360Z,1024.87
2019-02-27T07:06:25.362Z,1024.87
2019-02-27T07:07:25.333Z,1024.88
2019-02-27T07:08:25.323Z,1024.88
2019-02-27T07:09:25.319Z,1024.89
2019-02-27T07:10:25.301Z,1024.86
2019-02-27T07:11:25.305Z,1024.88
2019-02-27T07:12:25.281Z,1024.86
2019-02-27T07:13:26.758Z,1024.93
2019-02-27T07:14:25.257Z,1024.90
2019-02-27T07:15:25.247Z,1024.91
2019-02-27T07:16:25.251Z,1024.86
2019-02-27T07:17:25.225Z,1024.76
2019-02-27T07:18:25.207Z,1024.70
2019-02-27T07:19:25.219Z,1024.69
2019-02-27T07:20:25.378Z,1024.75
2019-02-27T07:21:25.199Z,1024.69
2019-02-27T07:22:25.163Z,1024.73
2019-02-27T07:23:25.155Z,1024.72
2019-02-27T07:24:25.144Z,1024.71
2019-02-27T07:25:25.137Z,1024.74
2019-02-27T07:26:25.154Z,1024.76
2019-02-27T07:27:25.124Z,1024.75
2019-02-27T07:28:25.098Z,1024.78
2019-02-27T07:29:27.468Z,1024.77
2019-02-27T07:30:25.076Z,1024.78
2019-02-27T07:31:25.086Z,1024.76
2019-02-27T07:32:25.083Z,1024.75
2019-02-27T07:33:25.037Z,1024.73
2019-02-27T07:34:25.044Z,1024.75
2019-02-27T07:35:26.318Z,1024.72
2019-02-27T07:36:25.007Z,1024.71
2019-02-27T07:37:25.031Z,1024.69
2019-02-27T07:38:25.631Z,1024.65
2019-02-27T07:39:24.976Z,1024.64
2019-02-27T07:40:24.981Z,1024.68
2019-02-27T07:41:24.983Z,1024.65
2019-02-27T07:42:24.958Z,1024.67
2019-02-27T07:43:24.935Z,1024.65
2019-02-27T07:44:24.925Z,1024.64
2019-02-27T07:45:25.041Z,1024.61
2019-02-27T07:46:24.897Z,1024.57
2019-02-27T07:47:24.905Z,1024.59
2019-02-27T07:48:25.027Z,1024.62
2019-02-27T07:49:24.869Z,1024.67
2019-02-27T07:50:24.876Z,1024.66
2019-02-27T07:51:24.846Z,1024.56
2019-02-27T07:52:24.857Z,1024.56
2019-02-27T07:53:25.648Z,1024.54
2019-02-27T07:54:28.769Z,1024.55
2019-02-27T07:55:28.237Z,1024.58
2019-02-27T07:56:24.783Z,1024.53
2019-02-27T07:57:24.791Z,1024.54
2019-02-27T07:58:24.768Z,1024.54
2019-02-27T07:59:24.759Z,1024.55
2019-02-27T08:00:26.335Z,1024.56
2019-02-27T08:01:24.742Z,1024.52
2019-02-27T08:02:24.733Z,1024.55
2019-02-27T08:03:24.704Z,1024.45
2019-02-27T08:04:24.699Z,1024.44
2019-02-27T08:05:27.890Z,1024.48
2019-02-27T08:06:24.677Z,1024.51
2019-02-27T08:07:24.690Z,1024.50
2019-02-27T08:08:24.655Z,1024.46
2019-02-27T08:09:24.645Z,1024.47
2019-02-27T08:10:24.631Z,1024.41
2019-02-27T08:11:26.441Z,1024.46
2019-02-27T08:12:24.605Z,1024.44
2019-02-27T08:13:27.110Z,1024.43
2019-02-27T08:14:25.594Z,1024.42
2019-02-27T08:15:25.490Z,1024.37
2019-02-27T08:16:24.567Z,1024.39
2019-02-27T08:17:24.552Z,1024.40
2019-02-27T08:18:30.098Z,1024.40
2019-02-27T08:19:25.542Z,1024.44
2019-02-27T08:20:24.526Z,1024.35
2019-02-27T08:21:24.506Z,1024.40
2019-02-27T08:22:24.495Z,1024.35
2019-02-27T08:23:24.510Z,1024.32
2019-02-27T08:24:24.984Z,1024.33
2019-02-27T08:25:24.465Z,1024.30
2019-02-27T08:26:24.457Z,1024.28
2019-02-27T08:27:24.453Z,1024.28
2019-02-27T08:28:24.446Z,1024.29
2019-02-27T08:29:24.415Z,1024.32
2019-02-27T08:30:24.410Z,1024.31
2019-02-27T08:31:28.003Z,1024.22
2019-02-27T08:32:24.383Z,1024.30
2019-02-27T08:33:24.401Z,1024.27
2019-02-27T08:34:24.366Z,1024.27
2019-02-27T08:35:24.349Z,1024.27
2019-02-27T08:36:24.342Z,1024.27
2019-02-27T08:37:24.324Z,1024.26
2019-02-27T08:38:24.741Z,1024.19
2019-02-27T08:39:24.303Z,1024.21
2019-02-27T08:40:25.236Z,1024.27
2019-02-27T08:41:24.290Z,1024.26
2019-02-27T08:42:24.276Z,1024.22
2019-02-27T08:43:24.286Z,1024.26
2019-02-27T08:44:24.258Z,1024.21
2019-02-27T08:45:27.013Z,1024.25
2019-02-27T08:46:24.227Z,1024.18
2019-02-27T08:47:24.220Z,1024.12
2019-02-27T08:48:24.227Z,1024.15
2019-02-27T08:49:25.024Z,1024.14
2019-02-27T08:50:24.188Z,1024.15
2019-02-27T08:51:24.175Z,1024.18
2019-02-27T08:52:24.163Z,1024.14
2019-02-27T08:53:26.803Z,1024.14
2019-02-27T08:54:24.137Z,1024.18
2019-02-27T08:55:24.126Z,1024.16
2019-02-27T08:56:24.128Z,1024.17
2019-02-27T08:57:24.110Z,1024.10
2019-02-27T08:58:26.707Z,1024.07
2019-02-27T08:59:25.087Z,1024.10
2019-02-27T09:00:24.077Z,1024.08
2019-02-27T09:01:24.062Z,1024.08
2019-02-27T09:02:24.256Z,1024.03
2019-02-27T09:03:24.038Z,1023.99
2019-02-27T09:04:24.040Z,1023.99
2019-02-27T09:05:24.025Z,1023.98
2019-02-27T09:06:27.318Z,1023.95
2019-02-27T09:07:23.988Z,1023.87
2019-02-27T09:08:23.987Z,1023.90
2019-02-27T09:09:23.992Z,1023.88
2019-02-27T09:10:26.692Z,1023.88
2019-02-27T09:11:24.952Z,1023.85
2019-02-27T09:12:23.947Z,1023.80
2019-02-27T09:13:23.936Z,1023.82
2019-02-27T09:14:23.935Z,1023.77
2019-02-27T09:15:23.903Z,1023.82
2019-02-27T09:16:26.041Z,1023.86
2019-02-27T09:17:27.129Z,1023.93
2019-02-27T09:18:23.876Z,1023.89
2019-02-27T09:19:23.876Z,1023.81
2019-02-27T09:20:23.852Z,1023.83
2019-02-27T09:21:24.912Z,1023.77
2019-02-27T09:22:23.833Z,1023.72
2019-02-27T09:23:23.815Z,1023.72
2019-02-27T09:24:23.824Z,1023.72
2019-02-27T09:25:24.851Z,1023.71
2019-02-27T09:26:24.323Z,1023.69
2019-02-27T09:27:23.771Z,1023.64
2019-02-27T09:28:23.766Z,1023.58
2019-02-27T09:29:23.779Z,1023.59
2019-02-27T09:30:28.948Z,1023.56
2019-02-27T09:31:24.720Z,1023.58
2019-02-27T09:32:23.713Z,1023.57
2019-02-27T09:33:23.703Z,1023.52
2019-02-27T09:34:26.635Z,1023.49
2019-02-27T09:35:23.684Z,1023.52
2019-02-27T09:36:23.673Z,1023.50
2019-02-27T09:37:23.667Z,1023.53
2019-02-27T09:38:24.368Z,1023.50
2019-02-27T09:39:23.655Z,1023.48
2019-02-27T09:40:23.631Z,1023.47
2019-02-27T09:41:23.609Z,1023.48
2019-02-27T09:42:23.606Z,1023.51
2019-02-27T09:43:24.106Z,1023.40
2019-02-27T09:44:23.610Z,1023.42
2019-02-27T09:45:23.573Z,1023.38
2019-02-27T09:46:23.563Z,1023.41
2019-02-27T09:47:25.766Z,1023.38
2019-02-27T09:48:23.535Z,1023.34
2019-02-27T09:49:23.547Z,1023.36
2019-02-27T09:50:23.516Z,1023.33
2019-02-27T09:51:23.510Z,1023.32
2019-02-27T09:52:23.777Z,1023.34
2019-02-27T09:53:23.477Z,1023.31
2019-02-27T09:54:23.502Z,1023.28
2019-02-27T09:55:23.461Z,1023.28
2019-02-27T09:56:26.038Z,1023.26
2019-02-27T09:57:24.434Z,1023.31
2019-02-27T09:58:23.422Z,1023.29
2019-02-27T09:59:23.434Z,1023.23
2019-02-27T10:00:25.894Z,1023.25
2019-02-27T10:01:23.388Z,1023.24
2019-02-27T10:02:23.377Z,1023.17
2019-02-27T10:03:23.386Z,1023.15
2019-02-27T10:04:25.907Z,1023.10
2019-02-27T10:05:23.345Z,1023.14
2019-02-27T10:06:23.342Z,1023.13
2019-02-27T10:07:23.323Z,1023.16
2019-02-27T10:08:25.322Z,1023.07
2019-02-27T10:09:23.329Z,1023.04
2019-02-27T10:10:23.284Z,1023.15
2019-02-27T10:11:23.273Z,1023.10
2019-02-27T10:12:27.103Z,1023.14
2019-02-27T10:13:23.259Z,1023.10
2019-02-27T10:14:23.266Z,1023.08
2019-02-27T10:15:25.225Z,1023.12
2019-02-27T10:16:23.220Z,1023.09
2019-02-27T10:17:23.207Z,1023.03
2019-02-27T10:18:23.195Z,1023.05
2019-02-27T10:19:23.208Z,1023.09
2019-02-27T10:20:23.176Z,1023.13
2019-02-27T10:21:23.165Z,1023.09
2019-02-27T10:22:24.609Z,1023.06
2019-02-27T10:23:23.148Z,1023.07
2019-02-27T10:24:23.149Z,1023.00
2019-02-27T10:25:23.119Z,1023.05
2019-02-27T10:26:23.102Z,1023.02
2019-02-27T10:27:25.489Z,1023.10
2019-02-27T10:28:24.086Z,1023.06
2019-02-27T10:29:23.095Z,1023.07
2019-02-27T10:30:23.068Z,1023.02
2019-02-27T10:31:25.992Z,1023.04
2019-02-27T10:32:23.037Z,1023.01
2019-02-27T10:33:23.039Z,1023.01
2019-02-27T10:34:23.030Z,1022.97
2019-02-27T10:35:23.135Z,1022.97
2019-02-27T10:36:22.991Z,1022.95
2019-02-27T10:37:23.124Z,1022.94
2019-02-27T10:38:22.971Z,1022.84
2019-02-27T10:39:22.954Z,1022.86
2019-02-27T10:40:22.974Z,1022.86
2019-02-27T10:41:22.935Z,1022.84
2019-02-27T10:42:22.932Z,1022.84
2019-02-27T10:43:22.909Z,1022.75
2019-02-27T10:44:22.905Z,1022.77
2019-02-27T10:45:22.913Z,1022.73
2019-02-27T10:46:23.666Z,1022.77
2019-02-27T10:47:22.871Z,1022.75
2019-02-27T10:48:22.859Z,1022.76
2019-02-27T10:49:22.845Z,1022.69
2019-02-27T10:50:22.857Z,1022.71
2019-02-27T10:51:22.827Z,1022.71
2019-02-27T10:52:24.433Z,1022.72
2019-02-27T10:53:26.858Z,1022.76
2019-02-27T10:54:23.809Z,1022.71
2019-02-27T10:55:22.777Z,1022.66
2019-02-27T10:56:24.243Z,1022.71
2019-02-27T10:57:22.800Z,1022.65
2019-02-27T10:58:24.614Z,1022.66
2019-02-27T10:59:23.061Z,1022.67
2019-02-27T11:00:25.214Z,1022.70
2019-02-27T11:01:22.729Z,1022.64
2019-02-27T11:02:23.518Z,1022.59
2019-02-27T11:03:23.651Z,1022.67
2019-02-27T11:04:22.682Z,1022.61
2019-02-27T11:05:22.673Z,1022.64
2019-02-27T11:06:22.677Z,1022.59
2019-02-27T11:07:22.646Z,1022.53
2019-02-27T11:08:22.634Z,1022.55
2019-02-27T11:09:22.618Z,1022.54
2019-02-27T11:10:22.642Z,1022.55
2019-02-27T11:11:22.600Z,1022.56
2019-02-27T11:12:22.617Z,1022.57
2019-02-27T11:13:22.577Z,1022.56
2019-02-27T11:14:22.571Z,1022.52
2019-02-27T11:15:22.552Z,1022.51
2019-02-27T11:16:22.544Z,1022.51
2019-02-27T11:17:22.551Z,1022.51
2019-02-27T11:18:22.520Z,1022.50
2019-02-27T11:19:22.516Z,1022.49
2019-02-27T11:20:24.611Z,1022.49
2019-02-27T11:21:22.490Z,1022.45
2019-02-27T11:22:22.497Z,1022.42
2019-02-27T11:23:22.471Z,1022.38
2019-02-27T11:24:22.453Z,1022.38
2019-02-27T11:25:23.215Z,1022.41
2019-02-27T11:26:22.447Z,1022.30
2019-02-27T11:27:22.444Z,1022.32
2019-02-27T11:28:22.417Z,1022.32
2019-02-27T11:29:23.900Z,1022.31
2019-02-27T11:30:22.423Z,1022.31
2019-02-27T11:31:22.383Z,1022.27
2019-02-27T11:32:23.873Z,1022.32
2019-02-27T11:33:26.011Z,1022.26
2019-02-27T11:34:22.353Z,1022.24
2019-02-27T11:35:25.163Z,1022.20
2019-02-27T11:36:22.329Z,1022.20
2019-02-27T11:37:22.331Z,1022.20
2019-02-27T11:38:24.790Z,1022.19
2019-02-27T11:39:22.295Z,1022.17
2019-02-27T11:40:22.288Z,1022.18
2019-02-27T11:41:22.280Z,1022.15
2019-02-27T11:42:22.282Z,1022.13
2019-02-27T11:43:22.254Z,1022.05
2019-02-27T11:44:22.240Z,1022.05
2019-02-27T11:45:24.680Z,1022.09
2019-02-27T11:46:22.228Z,1022.05
2019-02-27T11:47:22.238Z,1022.06
2019-02-27T11:48:22.876Z,1022.00
2019-02-27T11:49:22.191Z,1021.95
2019-02-27T11:50:22.195Z,1021.91
2019-02-27T11:51:22.164Z,1021.97
2019-02-27T11:52:22.159Z,1021.94
2019-02-27T11:53:22.175Z,1021.89
2019-02-27T11:54:22.139Z,1021.84
2019-02-27T11:55:24.279Z,1021.80
2019-02-27T11:56:22.116Z,1021.79
2019-02-27T11:57:22.107Z,1021.76
2019-02-27T11:58:22.131Z,1021.72
2019-02-27T11:59:22.085Z,1021.70
2019-02-27T12:00:22.073Z,1021.63
2019-02-27T12:01:22.766Z,1021.65
2019-02-27T12:02:28.731Z,1021.65
2019-02-27T12:03:23.079Z,1021.64
2019-02-27T12:04:22.037Z,1021.67
2019-02-27T12:05:22.019Z,1021.62